sensor_id;sensor_type;location;lat;lon;timestamp;pressure;altitude;pressure_sealevel;temperature;humidity
47716;BME280;33476;50.984;3.538;2024-02-21T00:01:46;102393.53;;;12.31;68.01
47716;BME280;33476;50.984;3.538;2024-02-21T00:04:11;102397.06;;;12.30;68.17
47716;BME280;33476;50.984;3.538;2024-02-21T00:06:37;102394.59;;;12.26;68.52
47716;BME280;33476;50.984;3.538;2024-02-21T00:09:02;102390.28;;;12.25;68.36
47716;BME280;33476;50.984;3.538;2024-02-21T00:11:28;102382.53;;;12.20;68.49
47716;BME280;33476;50.984;3.538;2024-02-21T00:13:53;102372.09;;;12.19;68.89
47716;BME280;33476;50.984;3.538;2024-02-21T00:16:19;102371.25;;;12.18;69.19
47716;BME280;33476;50.984;3.538;2024-02-21T00:18:45;102371.38;;;12.14;68.87
47716;BME280;33476;50.984;3.538;2024-02-21T00:21:10;102371.41;;;12.12;69.49
47716;BME280;33476;50.984;3.538;2024-02-21T00:23:40;102359.97;;;12.15;69.01
47716;BME280;33476;50.984;3.538;2024-02-21T00:26:06;102350.34;;;12.17;69.23
47716;BME280;33476;50.984;3.538;2024-02-21T00:28:32;102350.38;;;12.15;68.85
47716;BME280;33476;50.984;3.538;2024-02-21T00:30:58;102339.94;;;12.14;68.73
47716;BME280;33476;50.984;3.538;2024-02-21T00:33:23;102338.13;;;12.16;68.93
47716;BME280;33476;50.984;3.538;2024-02-21T00:35:48;102334.69;;;12.14;68.92
47716;BME280;33476;50.984;3.538;2024-02-21T00:38:14;102335.56;;;12.14;69.11
47716;BME280;33476;50.984;3.538;2024-02-21T00:40:39;102320.03;;;12.08;69.14
47716;BME280;33476;50.984;3.538;2024-02-21T00:43:04;102305.19;;;12.08;69.45
47716;BME280;33476;50.984;3.538;2024-02-21T00:45:30;102304.31;;;12.08;69.70
47716;BME280;33476;50.984;3.538;2024-02-21T00:47:55;102309.66;;;12.05;69.60
47716;BME280;33476;50.984;3.538;2024-02-21T00:50:20;102297.41;;;12.05;69.79
47716;BME280;33476;50.984;3.538;2024-02-21T00:52:46;102307.94;;;12.04;69.92
47716;BME280;33476;50.984;3.538;2024-02-21T00:55:11;102308.84;;;12.03;69.96
47716;BME280;33476;50.984;3.538;2024-02-21T00:57:36;102297.50;;;12.02;69.99
47716;BME280;33476;50.984;3.538;2024-02-21T01:00:03;102290.88;;;11.91;70.68
47716;BME280;33476;50.984;3.538;2024-02-21T01:02:28;102290.13;;;11.87;70.72
47716;BME280;33476;50.984;3.538;2024-02-21T01:04:57;102292.84;;;11.84;70.85
47716;BME280;33476;50.984;3.538;2024-02-21T01:07:22;102281.59;;;11.79;71.07
47716;BME280;33476;50.984;3.538;2024-02-21T01:13:09;102279.59;;;11.89;70.65
47716;BME280;33476;50.984;3.538;2024-02-21T01:15:35;102276.00;;;11.93;70.94
47716;BME280;33476;50.984;3.538;2024-02-21T01:18:00;102269.84;;;11.94;70.88
47716;BME280;33476;50.984;3.538;2024-02-21T01:20:26;102266.44;;;11.92;70.87
47716;BME280;33476;50.984;3.538;2024-02-21T01:22:51;102265.81;;;11.84;71.06
47716;BME280;33476;50.984;3.538;2024-02-21T01:25:17;102271.91;;;11.84;71.06
47716;BME280;33476;50.984;3.538;2024-02-21T01:27:42;102276.13;;;11.88;70.64
47716;BME280;33476;50.984;3.538;2024-02-21T01:30:08;102277.13;;;11.84;71.21
47716;BME280;33476;50.984;3.538;2024-02-21T01:32:33;102275.38;;;11.83;71.46
47716;BME280;33476;50.984;3.538;2024-02-21T01:34:59;102256.09;;;11.87;71.19
47716;BME280;33476;50.984;3.538;2024-02-21T01:37:24;102255.16;;;11.88;70.85
47716;BME280;33476;50.984;3.538;2024-02-21T01:39:50;102259.59;;;11.86;71.10
47716;BME280;33476;50.984;3.538;2024-02-21T01:42:15;102250.97;;;11.82;70.98
47716;BME280;33476;50.984;3.538;2024-02-21T01:44:41;102264.13;;;11.81;70.82
47716;BME280;33476;50.984;3.538;2024-02-21T01:47:06;102266.81;;;11.78;71.13
47716;BME280;33476;50.984;3.538;2024-02-21T01:49:33;102264.13;;;11.81;71.25
47716;BME280;33476;50.984;3.538;2024-02-21T01:51:59;102258.03;;;11.79;71.01
47716;BME280;33476;50.984;3.538;2024-02-21T01:54:25;102263.41;;;11.74;71.21
47716;BME280;33476;50.984;3.538;2024-02-21T01:56:54;102260.78;;;11.74;71.24
47716;BME280;33476;50.984;3.538;2024-02-21T01:59:21;102259.06;;;11.73;71.28
47716;BME280;33476;50.984;3.538;2024-02-21T02:01:46;102242.44;;;11.76;71.45
47716;BME280;33476;50.984;3.538;2024-02-21T02:04:12;102247.63;;;11.77;70.88
47716;BME280;33476;50.984;3.538;2024-02-21T02:06:38;102251.09;;;11.78;71.02
47716;BME280;33476;50.984;3.538;2024-02-21T02:09:04;102241.53;;;11.77;71.17
47716;BME280;33476;50.984;3.538;2024-02-21T02:11:31;102234.47;;;11.79;70.92
47716;BME280;33476;50.984;3.538;2024-02-21T02:13:57;102236.25;;;11.78;70.95
47716;BME280;33476;50.984;3.538;2024-02-21T02:16:22;102219.63;;;11.79;70.63
47716;BME280;33476;50.984;3.538;2024-02-21T02:18:47;102221.44;;;11.77;70.76
47716;BME280;33476;50.984;3.538;2024-02-21T02:21:29;102217.41;;;11.67;70.72
47716;BME280;33476;50.984;3.538;2024-02-21T02:23:54;102223.28;;;11.74;70.53
47716;BME280;33476;50.984;3.538;2024-02-21T02:26:20;102229.38;;;11.74;70.34
47716;BME280;33476;50.984;3.538;2024-02-21T02:28:45;102225.00;;;11.75;70.61
47716;BME280;33476;50.984;3.538;2024-02-21T02:31:11;102226.00;;;11.71;70.79
47716;BME280;33476;50.984;3.538;2024-02-21T02:33:36;102221.50;;;11.76;70.59
47716;BME280;33476;50.984;3.538;2024-02-21T02:36:01;102221.53;;;11.74;70.57
47716;BME280;33476;50.984;3.538;2024-02-21T02:38:27;102213.72;;;11.73;70.75
47716;BME280;33476;50.984;3.538;2024-02-21T02:40:52;102204.06;;;11.75;70.68
47716;BME280;33476;50.984;3.538;2024-02-21T02:43:17;102188.41;;;11.73;70.17
47716;BME280;33476;50.984;3.538;2024-02-21T02:45:43;102193.00;;;11.67;70.99
47716;BME280;33476;50.984;3.538;2024-02-21T02:48:08;102184.19;;;11.69;70.92
47716;BME280;33476;50.984;3.538;2024-02-21T02:50:34;102186.88;;;11.66;70.58
47716;BME280;33476;50.984;3.538;2024-02-21T02:52:59;102168.59;;;11.65;71.03
47716;BME280;33476;50.984;3.538;2024-02-21T02:55:24;102169.50;;;11.64;70.86
47716;BME280;33476;50.984;3.538;2024-02-21T02:57:51;102159.81;;;11.67;70.96
47716;BME280;33476;50.984;3.538;2024-02-21T03:00:17;102158.00;;;11.69;70.71
47716;BME280;33476;50.984;3.538;2024-02-21T03:02:44;102163.13;;;11.72;70.90
47716;BME280;33476;50.984;3.538;2024-02-21T03:05:16;102150.03;;;11.72;70.79
47716;BME280;33476;50.984;3.538;2024-02-21T03:07:42;102138.66;;;11.73;70.88
47716;BME280;33476;50.984;3.538;2024-02-21T03:10:08;102135.16;;;11.74;70.76
47716;BME280;33476;50.984;3.538;2024-02-21T03:12:34;102132.63;;;11.71;70.61
47716;BME280;33476;50.984;3.538;2024-02-21T03:14:59;102126.59;;;11.69;70.97
47716;BME280;33476;50.984;3.538;2024-02-21T03:17:24;102122.34;;;11.65;70.88
47716;BME280;33476;50.984;3.538;2024-02-21T03:19:52;102124.34;;;11.57;71.30
47716;BME280;33476;50.984;3.538;2024-02-21T03:22:17;102122.81;;;11.50;71.26
47716;BME280;33476;50.984;3.538;2024-02-21T03:24:43;102126.47;;;11.46;71.33
47716;BME280;33476;50.984;3.538;2024-02-21T03:27:08;102117.66;;;11.48;71.65
47716;BME280;33476;50.984;3.538;2024-02-21T03:29:34;102113.25;;;11.50;71.35
47716;BME280;33476;50.984;3.538;2024-02-21T03:31:59;102105.47;;;11.47;71.43
47716;BME280;33476;50.984;3.538;2024-02-21T03:34:24;102109.84;;;11.47;71.41
47716;BME280;33476;50.984;3.538;2024-02-21T03:36:50;102116.72;;;11.51;71.54
47716;BME280;33476;50.984;3.538;2024-02-21T03:39:15;102111.50;;;11.49;71.26
47716;BME280;33476;50.984;3.538;2024-02-21T03:41:40;102116.75;;;11.49;71.24
47716;BME280;33476;50.984;3.538;2024-02-21T03:44:06;102108.94;;;11.48;71.32
47716;BME280;33476;50.984;3.538;2024-02-21T03:46:31;102112.38;;;11.50;71.43
47716;BME280;33476;50.984;3.538;2024-02-21T03:48:57;102109.06;;;11.45;71.46
47716;BME280;33476;50.984;3.538;2024-02-21T03:51:22;102106.66;;;11.37;71.87
47716;BME280;33476;50.984;3.538;2024-02-21T03:53:47;102115.31;;;11.39;71.54
47716;BME280;33476;50.984;3.538;2024-02-21T03:56:13;102104.91;;;11.38;71.54
47716;BME280;33476;50.984;3.538;2024-02-21T03:58:38;102107.53;;;11.38;71.94
47716;BME280;33476;50.984;3.538;2024-02-21T04:01:03;102107.53;;;11.38;71.87
47716;BME280;33476;50.984;3.538;2024-02-21T04:03:30;102102.09;;;11.44;71.64
47716;BME280;33476;50.984;3.538;2024-02-21T04:05:55;102103.88;;;11.43;71.50
47716;BME280;33476;50.984;3.538;2024-02-21T04:08:22;102108.25;;;11.43;71.59
47716;BME280;33476;50.984;3.538;2024-02-21T04:10:47;102104.72;;;11.44;71.68
47716;BME280;33476;50.984;3.538;2024-02-21T04:13:12;102103.88;;;11.43;71.56
47716;BME280;33476;50.984;3.538;2024-02-21T04:15:38;102099.50;;;11.44;71.38
47716;BME280;33476;50.984;3.538;2024-02-21T04:18:03;102102.09;;;11.44;71.28
47716;BME280;33476;50.984;3.538;2024-02-21T04:20:29;102095.34;;;11.37;71.67
47716;BME280;33476;50.984;3.538;2024-02-21T04:22:54;102090.06;;;11.38;71.85
47716;BME280;33476;50.984;3.538;2024-02-21T04:25:20;102090.81;;;11.42;71.76
47716;BME280;33476;50.984;3.538;2024-02-21T04:27:46;102084.59;;;11.46;71.77
47716;BME280;33476;50.984;3.538;2024-02-21T04:30:12;102090.56;;;11.49;71.61
47716;BME280;33476;50.984;3.538;2024-02-21T04:32:38;102082.88;;;11.45;71.67
47716;BME280;33476;50.984;3.538;2024-02-21T04:35:04;102077.66;;;11.45;71.53
47716;BME280;33476;50.984;3.538;2024-02-21T04:37:29;102074.13;;;11.46;71.52
47716;BME280;33476;50.984;3.538;2024-02-21T04:39:54;102065.31;;;11.48;71.80
47716;BME280;33476;50.984;3.538;2024-02-21T04:42:20;102068.84;;;11.47;71.41
47716;BME280;33476;50.984;3.538;2024-02-21T04:44:45;102067.94;;;11.48;71.70
47716;BME280;33476;50.984;3.538;2024-02-21T04:47:10;102054.81;;;11.50;71.42
47716;BME280;33476;50.984;3.538;2024-02-21T04:49:36;102060.81;;;11.53;71.42
47716;BME280;33476;50.984;3.538;2024-02-21T04:52:01;102049.50;;;11.53;71.38
47716;BME280;33476;50.984;3.538;2024-02-21T04:54:27;102046.06;;;11.51;71.33
47716;BME280;33476;50.984;3.538;2024-02-21T04:56:52;102053.03;;;11.52;71.65
47716;BME280;33476;50.984;3.538;2024-02-21T04:59:18;102048.72;;;11.49;71.50
47716;BME280;33476;50.984;3.538;2024-02-21T05:01:43;102034.84;;;11.47;71.55
47716;BME280;33476;50.984;3.538;2024-02-21T05:04:08;102026.19;;;11.45;71.82
47716;BME280;33476;50.984;3.538;2024-02-21T05:06:40;102017.72;;;11.37;72.37
47716;BME280;33476;50.984;3.538;2024-02-21T05:09:09;102019.31;;;11.41;72.10
47716;BME280;33476;50.984;3.538;2024-02-21T05:11:36;102011.53;;;11.40;72.31
47716;BME280;33476;50.984;3.538;2024-02-21T05:14:01;102011.41;;;11.44;72.09
47716;BME280;33476;50.984;3.538;2024-02-21T05:16:27;102009.69;;;11.43;71.76
47716;BME280;33476;50.984;3.538;2024-02-21T05:18:52;102008.00;;;11.42;72.16
47716;BME280;33476;50.984;3.538;2024-02-21T05:21:18;102007.81;;;11.47;71.82
47716;BME280;33476;50.984;3.538;2024-02-21T05:23:44;101998.13;;;11.50;71.63
47716;BME280;33476;50.984;3.538;2024-02-21T05:26:09;101994.91;;;11.42;72.09
47716;BME280;33476;50.984;3.538;2024-02-21T05:28:34;102000.13;;;11.42;72.21
47716;BME280;33476;50.984;3.538;2024-02-21T05:31:00;101987.06;;;11.42;71.76
47716;BME280;33476;50.984;3.538;2024-02-21T05:33:26;101983.53;;;11.43;71.92
47716;BME280;33476;50.984;3.538;2024-02-21T05:35:51;101981.84;;;11.41;72.24
47716;BME280;33476;50.984;3.538;2024-02-21T05:38:17;101967.88;;;11.42;72.10
47716;BME280;33476;50.984;3.538;2024-02-21T05:40:42;101961.78;;;11.41;72.04
47716;BME280;33476;50.984;3.538;2024-02-21T05:43:09;101968.75;;;11.42;72.38
47716;BME280;33476;50.984;3.538;2024-02-21T05:45:34;101962.59;;;11.43;72.31
47716;BME280;33476;50.984;3.538;2024-02-21T05:48:00;101953.13;;;11.39;72.14
47716;BME280;33476;50.984;3.538;2024-02-21T05:50:26;101949.78;;;11.36;72.45
47716;BME280;33476;50.984;3.538;2024-02-21T05:52:54;101943.09;;;11.27;72.85
47716;BME280;33476;50.984;3.538;2024-02-21T05:55:19;101947.50;;;11.25;72.88
47716;BME280;33476;50.984;3.538;2024-02-21T05:57:45;101947.47;;;11.27;72.86
47716;BME280;33476;50.984;3.538;2024-02-21T06:00:10;101938.66;;;11.29;72.64
47716;BME280;33476;50.984;3.538;2024-02-21T06:02:36;101937.75;;;11.30;72.63
47716;BME280;33476;50.984;3.538;2024-02-21T06:05:01;101935.13;;;11.30;72.88
47716;BME280;33476;50.984;3.538;2024-02-21T06:07:27;101930.81;;;11.29;72.69
47716;BME280;33476;50.984;3.538;2024-02-21T06:09:52;101929.00;;;11.31;72.84
47716;BME280;33476;50.984;3.538;2024-02-21T06:12:17;101935.94;;;11.32;72.59
47716;BME280;33476;50.984;3.538;2024-02-21T06:14:43;101927.22;;;11.32;72.82
47716;BME280;33476;50.984;3.538;2024-02-21T06:17:08;101931.56;;;11.33;72.55
47716;BME280;33476;50.984;3.538;2024-02-21T06:19:33;101940.16;;;11.36;72.44
47716;BME280;33476;50.984;3.538;2024-02-21T06:21:59;101934.13;;;11.34;72.54
47716;BME280;33476;50.984;3.538;2024-02-21T06:24:24;101943.09;;;11.27;72.94
47716;BME280;33476;50.984;3.538;2024-02-21T06:26:50;101935.25;;;11.27;73.16
47716;BME280;33476;50.984;3.538;2024-02-21T06:29:15;101924.78;;;11.27;72.94
47716;BME280;33476;50.984;3.538;2024-02-21T06:31:40;101927.34;;;11.29;72.96
47716;BME280;33476;50.984;3.538;2024-02-21T06:34:06;101923.97;;;11.25;72.88
47716;BME280;33476;50.984;3.538;2024-02-21T06:36:31;101919.56;;;11.27;72.81
47716;BME280;33476;50.984;3.538;2024-02-21T06:38:56;101909.84;;;11.31;72.68
47716;BME280;33476;50.984;3.538;2024-02-21T06:41:22;101915.13;;;11.29;72.76
47716;BME280;33476;50.984;3.538;2024-02-21T06:43:47;101907.16;;;11.32;72.55
47716;BME280;33476;50.984;3.538;2024-02-21T06:46:26;101899.44;;;11.29;72.73
47716;BME280;33476;50.984;3.538;2024-02-21T06:48:53;101895.66;;;11.38;72.46
47716;BME280;33476;50.984;3.538;2024-02-21T06:51:19;101890.72;;;11.29;72.41
47716;BME280;33476;50.984;3.538;2024-02-21T06:53:44;101884.00;;;11.21;72.72
47716;BME280;33476;50.984;3.538;2024-02-21T06:56:10;101890.25;;;11.17;72.92
47716;BME280;33476;50.984;3.538;2024-02-21T06:58:35;101875.41;;;11.18;73.11
47716;BME280;33476;50.984;3.538;2024-02-21T07:01:01;101887.41;;;11.23;72.95
47716;BME280;33476;50.984;3.538;2024-02-21T07:03:26;101877.78;;;11.24;72.81
47716;BME280;33476;50.984;3.538;2024-02-21T07:05:52;101880.31;;;11.27;72.83
47716;BME280;33476;50.984;3.538;2024-02-21T07:08:17;101877.59;;;11.30;72.64
47716;BME280;33476;50.984;3.538;2024-02-21T07:10:42;101873.38;;;11.26;72.82
47716;BME280;33476;50.984;3.538;2024-02-21T07:13:08;101876.75;;;11.30;72.85
47716;BME280;33476;50.984;3.538;2024-02-21T07:15:33;101865.16;;;11.37;72.60
47716;BME280;33476;50.984;3.538;2024-02-21T07:17:59;101868.56;;;11.39;72.29
47716;BME280;33476;50.984;3.538;2024-02-21T07:20:24;101867.84;;;11.35;72.37
47716;BME280;33476;50.984;3.538;2024-02-21T07:22:50;101857.47;;;11.32;72.68
47716;BME280;33476;50.984;3.538;2024-02-21T07:25:15;101844.44;;;11.31;72.69
47716;BME280;33476;50.984;3.538;2024-02-21T07:27:41;101836.50;;;11.34;72.47
47716;BME280;33476;50.984;3.538;2024-02-21T07:30:07;101828.50;;;11.38;72.32
47716;BME280;33476;50.984;3.538;2024-02-21T07:32:32;101832.75;;;11.41;72.38
47716;BME280;33476;50.984;3.538;2024-02-21T07:34:58;101833.50;;;11.44;72.24
47716;BME280;33476;50.984;3.538;2024-02-21T07:37:23;101832.72;;;11.42;72.25
47716;BME280;33476;50.984;3.538;2024-02-21T07:39:48;101824.75;;;11.45;72.32
47716;BME280;33476;50.984;3.538;2024-02-21T07:42:14;101825.88;;;11.38;72.28
47716;BME280;33476;50.984;3.538;2024-02-21T07:44:40;101812.91;;;11.35;72.56
47716;BME280;33476;50.984;3.538;2024-02-21T07:47:06;101813.75;;;11.36;72.57
47716;BME280;33476;50.984;3.538;2024-02-21T07:49:32;101805.06;;;11.35;72.48
47716;BME280;33476;50.984;3.538;2024-02-21T07:51:57;101795.59;;;11.31;72.73
47716;BME280;33476;50.984;3.538;2024-02-21T07:54:23;101803.41;;;11.33;72.94
47716;BME280;33476;50.984;3.538;2024-02-21T07:56:48;101799.91;;;11.34;72.73
47716;BME280;33476;50.984;3.538;2024-02-21T07:59:13;101798.13;;;11.34;72.87
47716;BME280;33476;50.984;3.538;2024-02-21T08:01:39;101789.25;;;11.38;72.76
47716;BME280;33476;50.984;3.538;2024-02-21T08:04:04;101786.56;;;11.40;72.93
47716;BME280;33476;50.984;3.538;2024-02-21T08:06:30;101785.00;;;11.36;72.71
47716;BME280;33476;50.984;3.538;2024-02-21T08:08:55;101767.41;;;11.39;72.65
47716;BME280;33476;50.984;3.538;2024-02-21T08:11:22;101757.06;;;11.36;72.73
47716;BME280;33476;50.984;3.538;2024-02-21T08:13:47;101762.31;;;11.36;72.83
47716;BME280;33476;50.984;3.538;2024-02-21T08:16:13;101753.53;;;11.37;72.88
47716;BME280;33476;50.984;3.538;2024-02-21T08:18:38;101751.78;;;11.38;72.76
47716;BME280;33476;50.984;3.538;2024-02-21T08:21:04;101738.78;;;11.36;72.57
47716;BME280;33476;50.984;3.538;2024-02-21T08:23:29;101731.72;;;11.38;72.54
47716;BME280;33476;50.984;3.538;2024-02-21T08:25:55;101730.78;;;11.39;72.66
47716;BME280;33476;50.984;3.538;2024-02-21T08:28:20;101723.53;;;11.47;72.35
47716;BME280;33476;50.984;3.538;2024-02-21T08:30:45;101720.69;;;11.53;71.96
47716;BME280;33476;50.984;3.538;2024-02-21T08:33:14;101712.03;;;11.51;71.71
47716;BME280;33476;50.984;3.538;2024-02-21T08:35:40;101716.53;;;11.48;72.00
47716;BME280;33476;50.984;3.538;2024-02-21T08:38:05;101701.69;;;11.48;71.92
47716;BME280;33476;50.984;3.538;2024-02-21T08:40:30;101701.69;;;11.48;71.89
47716;BME280;33476;50.984;3.538;2024-02-21T08:42:56;101704.06;;;11.54;71.42
47716;BME280;33476;50.984;3.538;2024-02-21T08:45:21;101703.28;;;11.52;71.38
47716;BME280;33476;50.984;3.538;2024-02-21T08:47:46;101710.50;;;11.46;71.69
47716;BME280;33476;50.984;3.538;2024-02-21T08:50:12;101709.66;;;11.45;71.80
47716;BME280;33476;50.984;3.538;2024-02-21T08:52:37;101691.41;;;11.44;71.59
47716;BME280;33476;50.984;3.538;2024-02-21T08:55:03;101672.19;;;11.45;71.27
47716;BME280;33476;50.984;3.538;2024-02-21T08:57:29;101665.88;;;11.50;71.43
47716;BME280;33476;50.984;3.538;2024-02-21T08:59:54;101656.13;;;11.54;71.34
47716;BME280;33476;50.984;3.538;2024-02-21T09:02:19;101640.00;;;11.65;70.78
47716;BME280;33476;50.984;3.538;2024-02-21T09:04:45;101647.28;;;11.57;70.96
47716;BME280;33476;50.984;3.538;2024-02-21T09:07:10;101644.81;;;11.53;71.13
47716;BME280;33476;50.984;3.538;2024-02-21T09:09:36;101650.09;;;11.52;70.85
47716;BME280;33476;50.984;3.538;2024-02-21T09:12:04;101637.03;;;11.52;70.82
47716;BME280;33476;50.984;3.538;2024-02-21T09:14:34;101635.34;;;11.49;70.84
47716;BME280;33476;50.984;3.538;2024-02-21T09:16:59;101619.44;;;11.56;70.89
47716;BME280;33476;50.984;3.538;2024-02-21T09:19:25;101616.72;;;11.59;70.76
47716;BME280;33476;50.984;3.538;2024-02-21T09:21:50;101611.53;;;11.57;70.52
47716;BME280;33476;50.984;3.538;2024-02-21T09:24:16;101611.34;;;11.62;70.49
47716;BME280;33476;50.984;3.538;2024-02-21T09:26:41;101607.34;;;11.53;70.41
47716;BME280;33476;50.984;3.538;2024-02-21T09:29:06;101605.69;;;11.50;70.95
47716;BME280;33476;50.984;3.538;2024-02-21T09:31:33;101605.88;;;11.46;71.17
47716;BME280;33476;50.984;3.538;2024-02-21T09:33:58;101611.22;;;11.43;70.91
47716;BME280;33476;50.984;3.538;2024-02-21T09:36:23;101592.91;;;11.43;70.88
47716;BME280;33476;50.984;3.538;2024-02-21T09:38:49;101584.88;;;11.47;70.91
47716;BME280;33476;50.984;3.538;2024-02-21T09:41:16;101586.78;;;11.44;70.96
47716;BME280;33476;50.984;3.538;2024-02-21T09:43:45;101580.50;;;11.48;70.95
47716;BME280;33476;50.984;3.538;2024-02-21T09:46:18;101590.78;;;11.52;70.93
47716;BME280;33476;50.984;3.538;2024-02-21T09:51:21;101574.84;;;11.59;70.70
47716;BME280;33476;50.984;3.538;2024-02-21T09:53:48;101559.03;;;11.62;70.48
47716;BME280;33476;50.984;3.538;2024-02-21T09:56:14;101564.19;;;11.63;70.64
47716;BME280;33476;50.984;3.538;2024-02-21T09:58:39;101556.34;;;11.63;70.77
47716;BME280;33476;50.984;3.538;2024-02-21T10:01:06;101543.09;;;11.68;70.65
47716;BME280;33476;50.984;3.538;2024-02-21T10:03:32;101551.72;;;11.70;70.58
47716;BME280;33476;50.984;3.538;2024-02-21T10:05:58;101554.50;;;11.65;70.58
47716;BME280;33476;50.984;3.538;2024-02-21T10:08:26;101536.00;;;11.70;70.30
47716;BME280;33476;50.984;3.538;2024-02-21T10:10:51;101517.47;;;11.74;70.46
47716;BME280;33476;50.984;3.538;2024-02-21T10:13:28;101507.22;;;11.70;70.42
47716;BME280;33476;50.984;3.538;2024-02-21T10:16:08;101511.41;;;11.74;70.11
47716;BME280;33476;50.984;3.538;2024-02-21T10:18:34;101501.69;;;11.77;70.01
47716;BME280;33476;50.984;3.538;2024-02-21T10:21:04;101486.94;;;11.75;70.21
47716;BME280;33476;50.984;3.538;2024-02-21T10:23:40;101507.81;;;11.76;70.21
47716;BME280;33476;50.984;3.538;2024-02-21T10:26:07;101483.28;;;11.79;70.25
47716;BME280;33476;50.984;3.538;2024-02-21T10:28:32;101486.72;;;11.81;70.13
47716;BME280;33476;50.984;3.538;2024-02-21T10:30:58;101479.78;;;11.80;70.06
47716;BME280;33476;50.984;3.538;2024-02-21T10:33:23;101478.00;;;11.80;70.11
47716;BME280;33476;50.984;3.538;2024-02-21T10:35:50;101481.22;;;11.87;69.84
47716;BME280;33476;50.984;3.538;2024-02-21T10:38:16;101473.66;;;11.79;70.32
47716;BME280;33476;50.984;3.538;2024-02-21T10:40:42;101473.66;;;11.79;69.91
47716;BME280;33476;50.984;3.538;2024-02-21T10:43:12;101475.22;;;11.85;69.70
47716;BME280;33476;50.984;3.538;2024-02-21T10:45:38;101467.34;;;11.85;69.79
47716;BME280;33476;50.984;3.538;2024-02-21T10:51:14;101451.59;;;11.87;69.65
47716;BME280;33476;50.984;3.538;2024-02-21T10:53:41;101453.97;;;11.91;69.51
47716;BME280;33476;50.984;3.538;2024-02-21T10:56:22;101456.22;;;11.80;69.73
47716;BME280;33476;50.984;3.538;2024-02-21T10:58:49;101443.31;;;11.75;69.63
47716;BME280;33476;50.984;3.538;2024-02-21T11:01:15;101439.19;;;11.70;69.78
47716;BME280;33476;50.984;3.538;2024-02-21T11:03:44;101440.28;;;11.64;70.17
47716;BME280;33476;50.984;3.538;2024-02-21T11:06:13;101447.63;;;11.56;70.37
47716;BME280;33476;50.984;3.538;2024-02-21T11:08:39;101438.00;;;11.57;70.46
47716;BME280;33476;50.984;3.538;2024-02-21T11:11:05;101424.72;;;11.61;70.42
47716;BME280;33476;50.984;3.538;2024-02-21T11:13:40;101387.03;;;11.65;70.26
47716;BME280;33476;50.984;3.538;2024-02-21T11:16:09;101399.09;;;11.69;69.73
47716;BME280;33476;50.984;3.538;2024-02-21T11:18:39;101394.44;;;11.76;69.54
47716;BME280;33476;50.984;3.538;2024-02-21T11:21:04;101397.19;;;11.73;69.81
47716;BME280;33476;50.984;3.538;2024-02-21T11:23:30;101381.53;;;11.71;69.61
47716;BME280;33476;50.984;3.538;2024-02-21T11:26:18;101373.78;;;11.70;70.05
47716;BME280;33476;50.984;3.538;2024-02-21T11:28:56;101372.84;;;11.71;69.63
47716;BME280;33476;50.984;3.538;2024-02-21T11:31:22;101367.28;;;11.78;69.86
47716;BME280;33476;50.984;3.538;2024-02-21T11:33:47;101363.75;;;11.79;69.68
47716;BME280;33476;50.984;3.538;2024-02-21T11:36:24;101360.34;;;11.77;69.74
47716;BME280;33476;50.984;3.538;2024-02-21T11:38:51;101353.44;;;11.76;69.55
47716;BME280;33476;50.984;3.538;2024-02-21T11:41:16;101352.97;;;11.67;70.01
47716;BME280;33476;50.984;3.538;2024-02-21T11:43:41;101339.69;;;11.71;69.75
47716;BME280;33476;50.984;3.538;2024-02-21T11:46:07;101325.59;;;11.74;69.96
47716;BME280;33476;50.984;3.538;2024-02-21T11:48:32;101323.72;;;11.77;69.90
47716;BME280;33476;50.984;3.538;2024-02-21T11:50:57;101327.97;;;11.80;69.49
47716;BME280;33476;50.984;3.538;2024-02-21T11:53:23;101327.97;;;11.80;69.54
47716;BME280;33476;50.984;3.538;2024-02-21T11:55:49;101314.91;;;11.80;69.45
47716;BME280;33476;50.984;3.538;2024-02-21T11:58:16;101317.50;;;11.80;69.54
47716;BME280;33476;50.984;3.538;2024-02-21T12:00:41;101325.41;;;11.78;69.45
47716;BME280;33476;50.984;3.538;2024-02-21T12:03:07;101314.50;;;11.69;69.50
47716;BME280;33476;50.984;3.538;2024-02-21T12:05:33;101292.50;;;11.73;69.08
47716;BME280;33476;50.984;3.538;2024-02-21T12:07:58;101282.44;;;11.64;69.36
47716;BME280;33476;50.984;3.538;2024-02-21T12:10:26;101252.91;;;11.62;69.22
47716;BME280;33476;50.984;3.538;2024-02-21T12:12:52;101248.38;;;11.65;69.11
47716;BME280;33476;50.984;3.538;2024-02-21T12:15:20;101244.63;;;11.71;69.12
47716;BME280;33476;50.984;3.538;2024-02-21T12:17:45;101241.94;;;11.72;68.96
47716;BME280;33476;50.984;3.538;2024-02-21T12:20:10;101240.94;;;11.75;68.81
47716;BME280;33476;50.984;3.538;2024-02-21T12:22:37;101235.38;;;11.82;68.94
47716;BME280;33476;50.984;3.538;2024-02-21T12:25:23;101225.75;;;11.83;69.05
47716;BME280;33476;50.984;3.538;2024-02-21T12:27:51;101208.00;;;11.90;68.49
47716;BME280;33476;50.984;3.538;2024-02-21T12:30:17;101199.59;;;11.83;68.70
47716;BME280;33476;50.984;3.538;2024-02-21T12:32:42;101202.00;;;11.88;68.66
47716;BME280;33476;50.984;3.538;2024-02-21T12:35:08;101172.94;;;11.94;68.64
47716;BME280;33476;50.984;3.538;2024-02-21T12:37:33;101186.78;;;11.96;68.82
47716;BME280;33476;50.984;3.538;2024-02-21T12:39:59;101172.69;;;11.98;68.77
47716;BME280;33476;50.984;3.538;2024-02-21T12:42:25;101155.44;;;11.94;68.73
47716;BME280;33476;50.984;3.538;2024-02-21T12:44:51;101162.53;;;11.92;68.77
47716;BME280;33476;50.984;3.538;2024-02-21T12:47:18;101156.38;;;11.93;68.71
47716;BME280;33476;50.984;3.538;2024-02-21T12:49:45;101156.38;;;11.93;68.81
47716;BME280;33476;50.984;3.538;2024-02-21T12:52:10;101149.13;;;11.98;69.05
47716;BME280;33476;50.984;3.538;2024-02-21T12:54:36;101152.56;;;12.00;69.04